»·PEaware :: AAL480 KPHX-KSAN

AAL480 :: KPHX-KSAN

FLIGHT INFORMATION

Flight Status: Arrived
Operator:
American Airlines
More flights by this operator :: More flights under this callsign
Pilot: Alfredo R. (12181)
Aircraft: BOEING 737-800
(B738)
More flights by this aircraft type
Origin: KPHX Phoenix Sky Harbor Intl
United States
Destination: KSAN San Diego Intl-Lindbergh
United States
More flights between these airports :: More routes between these airports
Route: +FYRBD1 MOHAK J2 HOGGZ LUCKI1
File this flight plan on PilotEdge
Remarks:
Altitude:
(Current/Filed)
26,000ft
Speed:
(Current/Filed)
425kts
Departed: 15-Jan-19 05:50 PM
Arrived: 15-Jan-19 06:45 PM
Distance/Time
Traveled:
264nm/0:55
Distance/Time
To Go:
Arrived

Flight Plot

Page will automatically refresh every two minutes.

Flight plan parsing failed; only flown route is shown


Map Options




Map Legend


Flown Route
Filed Route
Departure Airport
Arrival Airport
Navaid (VOR, NDB)
Fix

Horizontal Profiles

Position Reports

Time Latitude Longitude Heading Altitude Ground
Speed
15-Jan-19 17:19 33.436898 -112.002413 90 1138ft 0kts
15-Jan-19 17:20 33.436898 -112.002413 90 1138ft 0kts
15-Jan-19 17:21 33.436898 -112.002413 90 1138ft 0kts
15-Jan-19 17:22 33.436898 -112.002413 90 1138ft 0kts
15-Jan-19 17:23 33.436898 -112.002413 90 1139ft 0kts
15-Jan-19 17:24 33.436898 -112.002413 90 1139ft 0kts
15-Jan-19 17:25 33.436898 -112.002413 90 1139ft 0kts
15-Jan-19 17:26 33.436898 -112.002413 90 1139ft 0kts
15-Jan-19 17:27 33.436902 -112.002689 90 1139ft 2kts
15-Jan-19 17:28 33.436563 -112.003025 359 1139ft 1kts
15-Jan-19 17:29 33.437378 -112.003031 359 1139ft 3kts
15-Jan-19 17:30 33.438442 -112.003028 0 1139ft 3kts
15-Jan-19 17:31 33.438514 -112.003027 0 1138ft 0kts
15-Jan-19 17:32 33.438514 -112.003027 0 1138ft 0kts
15-Jan-19 17:33 33.438514 -112.003027 0 1138ft 0kts
15-Jan-19 17:34 33.438514 -112.003027 0 1138ft 0kts
15-Jan-19 17:35 33.438514 -112.003027 0 1138ft 0kts
15-Jan-19 17:36 33.438514 -112.003027 0 1138ft 0kts
15-Jan-19 17:37 33.438659 -112.003024 0 1138ft 1kts
15-Jan-19 17:38 33.438677 -112.003024 0 1138ft 0kts
15-Jan-19 17:39 33.438937 -112.003153 310 1139ft 1kts
15-Jan-19 17:40 33.439603 -112.003639 50 1138ft 6kts
15-Jan-19 17:41 33.439718 -112.000643 89 1138ft 14kts
15-Jan-19 17:42 33.439715 -111.995713 89 1138ft 18kts
15-Jan-19 17:43 33.439856 -111.992417 39 1139ft 0kts
15-Jan-19 17:44 33.439856 -111.992417 39 1139ft 0kts
15-Jan-19 17:45 33.439856 -111.992417 39 1139ft 0kts
15-Jan-19 17:46 33.439856 -111.992417 39 1139ft 0kts
15-Jan-19 17:47 33.440090 -111.992296 9 1139ft 5kts
15-Jan-19 17:48 33.440820 -111.996523 270 1138ft 39kts
15-Jan-19 17:49 33.441013 -112.037797 267 1826ft 176kts
15-Jan-19 17:51 33.423878 -112.094779 252 3588ft 218kts
15-Jan-19 17:52 33.395976 -112.161692 224 6469ft 243kts
15-Jan-19 17:53 33.331361 -112.173782 168 9629ft 265kts
15-Jan-19 17:54 33.257712 -112.155440 204 11625ft 290kts
15-Jan-19 17:55 33.191832 -112.211126 225 14347ft 301kts
15-Jan-19 17:56 33.155105 -112.298081 263 16999ft 313kts
15-Jan-19 17:57 33.137773 -112.397423 235 19402ft 318kts
15-Jan-19 17:58 33.082460 -112.479878 233 21543ft 328kts
15-Jan-19 17:59 33.026407 -112.566464 233 23513ft 337kts
15-Jan-19 18:00 32.969156 -112.655914 238 25311ft 344kts
15-Jan-19 18:01 32.943904 -112.768581 258 26119ft 370kts
15-Jan-19 18:02 32.927296 -112.890522 258 26120ft 375kts
15-Jan-19 18:03 32.910715 -113.012254 258 26112ft 375kts
15-Jan-19 18:04 32.893932 -113.134892 258 26119ft 375kts
15-Jan-19 18:05 32.877086 -113.257163 258 26116ft 375kts
15-Jan-19 18:06 32.860307 -113.378094 258 26114ft 371kts
15-Jan-19 18:07 32.843359 -113.499143 258 26114ft 371kts
15-Jan-19 18:08 32.826391 -113.619660 258 26115ft 370kts
15-Jan-19 18:09 32.809156 -113.740669 258 26122ft 371kts
15-Jan-19 18:10 32.791864 -113.861130 258 26122ft 371kts
15-Jan-19 18:11 32.775114 -113.981784 263 26117ft 373kts
15-Jan-19 18:12 32.775712 -114.105210 269 26129ft 375kts
15-Jan-19 18:13 32.781159 -114.228536 269 26129ft 374kts
15-Jan-19 18:13 32.785189 -114.331488 269 26128ft 375kts
15-Jan-19 18:14 32.805122 -114.453371 284 26124ft 383kts
15-Jan-19 18:15 32.838729 -114.572823 283 26128ft 383kts
15-Jan-19 18:16 32.871713 -114.693065 282 26132ft 382kts
15-Jan-19 18:18 32.876927 -114.836840 265 26140ft 375kts
15-Jan-19 18:18 32.874614 -114.939733 265 26140ft 375kts
15-Jan-19 18:19 32.871789 -115.061186 265 26138ft 375kts
15-Jan-19 18:20 32.868875 -115.182138 265 26138ft 375kts
15-Jan-19 18:21 32.865788 -115.305581 266 26105ft 371kts
15-Jan-19 18:22 32.854092 -115.419609 259 26107ft 347kts
15-Jan-19 18:23 32.837385 -115.532502 257 26025ft 345kts
15-Jan-19 18:24 32.819470 -115.641014 258 24165ft 324kts
15-Jan-19 18:25 32.802509 -115.743646 257 22389ft 329kts
15-Jan-19 18:26 32.785218 -115.848291 259 20554ft 317kts
15-Jan-19 18:27 32.777531 -115.948892 263 18790ft 303kts
15-Jan-19 18:28 32.770012 -116.049637 263 16971ft 315kts
15-Jan-19 18:29 32.762229 -116.152605 263 15166ft 313kts
15-Jan-19 18:30 32.754632 -116.252267 263 13497ft 293kts
15-Jan-19 18:31 32.747422 -116.345950 263 11948ft 280kts
15-Jan-19 18:32 32.740351 -116.437012 263 10587ft 271kts
15-Jan-19 18:33 32.732933 -116.528079 262 9646ft 274kts
15-Jan-19 18:34 32.724162 -116.617868 262 7893ft 262kts
15-Jan-19 18:35 32.716750 -116.700374 262 6989ft 249kts
15-Jan-19 18:36 32.710420 -116.780491 263 6109ft 244kts
15-Jan-19 18:37 32.696794 -116.855799 252 5238ft 229kts
15-Jan-19 18:38 32.675970 -116.921873 253 4435ft 231kts
15-Jan-19 18:39 32.684815 -116.989149 284 3595ft 194kts
15-Jan-19 18:40 32.697855 -117.042788 284 2612ft 159kts
15-Jan-19 18:41 32.708933 -117.088242 283 1722ft 149kts
15-Jan-19 18:42 32.720276 -117.133621 284 1085ft 147kts
15-Jan-19 18:43 32.731361 -117.180431 281 39ft 150kts
15-Jan-19 18:44 32.736128 -117.201383 263 17ft 14kts
15-Jan-19 18:45 32.735696 -117.202102 205 17ft 0kts
15-Jan-19 18:46 32.733783 -117.202725 179 17ft 10kts
15-Jan-19 18:47 32.732878 -117.201745 90 17ft 6kts
15-Jan-19 18:48 32.732880 -117.201629 88 17ft 0kts

Navigation Log

Ident Type
Flight plan parsing failed, navigation log unavailable